sensor_id;sensor_type;location;lat;lon;timestamp;P1;durP1;ratioP1;P2;durP2;ratioP2
14276;SDS011;7222;57.346;12.150;2022-11-15T00:02:21;7.43;;;6.27;;
14276;SDS011;7222;57.346;12.150;2022-11-15T00:04:48;6.90;;;6.20;;
14276;SDS011;7222;57.346;12.150;2022-11-15T00:07:15;6.93;;;5.93;;
14276;SDS011;7222;57.346;12.150;2022-11-15T00:09:42;6.80;;;5.87;;
14276;SDS011;7222;57.346;12.150;2022-11-15T00:12:11;6.10;;;5.27;;
14276;SDS011;7222;57.346;12.150;2022-11-15T00:14:38;6.23;;;5.63;;
14276;SDS011;7222;57.346;12.150;2022-11-15T00:17:05;7.33;;;5.73;;
14276;SDS011;7222;57.346;12.150;2022-11-15T00:19:32;8.77;;;6.33;;
14276;SDS011;7222;57.346;12.150;2022-11-15T00:22:00;8.93;;;6.03;;
14276;SDS011;7222;57.346;12.150;2022-11-15T00:24:27;7.03;;;6.17;;
14276;SDS011;7222;57.346;12.150;2022-11-15T00:26:54;7.23;;;5.97;;
14276;SDS011;7222;57.346;12.150;2022-11-15T00:29:22;7.33;;;5.70;;
14276;SDS011;7222;57.346;12.150;2022-11-15T00:31:49;8.10;;;6.37;;
14276;SDS011;7222;57.346;12.150;2022-11-15T00:34:16;8.30;;;6.33;;
14276;SDS011;7222;57.346;12.150;2022-11-15T00:36:43;9.43;;;5.90;;
14276;SDS011;7222;57.346;12.150;2022-11-15T00:39:10;8.93;;;6.43;;
14276;SDS011;7222;57.346;12.150;2022-11-15T00:41:37;7.00;;;5.60;;
14276;SDS011;7222;57.346;12.150;2022-11-15T00:44:04;8.47;;;6.30;;
14276;SDS011;7222;57.346;12.150;2022-11-15T00:46:33;7.13;;;5.93;;
14276;SDS011;7222;57.346;12.150;2022-11-15T00:49:00;6.73;;;5.20;;
14276;SDS011;7222;57.346;12.150;2022-11-15T00:51:27;6.83;;;5.80;;
14276;SDS011;7222;57.346;12.150;2022-11-15T00:53:55;9.43;;;5.90;;
14276;SDS011;7222;57.346;12.150;2022-11-15T00:56:22;10.40;;;5.83;;
14276;SDS011;7222;57.346;12.150;2022-11-15T00:58:49;6.80;;;5.60;;
14276;SDS011;7222;57.346;12.150;2022-11-15T01:01:16;7.73;;;5.67;;
14276;SDS011;7222;57.346;12.150;2022-11-15T01:03:44;6.20;;;5.47;;
14276;SDS011;7222;57.346;12.150;2022-11-15T01:06:12;8.07;;;5.87;;
14276;SDS011;7222;57.346;12.150;2022-11-15T01:08:39;6.97;;;5.90;;
14276;SDS011;7222;57.346;12.150;2022-11-15T01:11:06;7.60;;;5.40;;
14276;SDS011;7222;57.346;12.150;2022-11-15T01:13:36;6.73;;;5.60;;
14276;SDS011;7222;57.346;12.150;2022-11-15T01:16:08;7.67;;;6.03;;
14276;SDS011;7222;57.346;12.150;2022-11-15T01:18:38;7.63;;;6.27;;
14276;SDS011;7222;57.346;12.150;2022-11-15T01:21:07;7.60;;;5.60;;
14276;SDS011;7222;57.346;12.150;2022-11-15T01:23:35;6.50;;;5.73;;
14276;SDS011;7222;57.346;12.150;2022-11-15T01:26:03;8.43;;;6.73;;
14276;SDS011;7222;57.346;12.150;2022-11-15T01:28:32;7.87;;;5.37;;
14276;SDS011;7222;57.346;12.150;2022-11-15T01:31:00;8.47;;;6.63;;
14276;SDS011;7222;57.346;12.150;2022-11-15T01:33:29;7.10;;;5.63;;
14276;SDS011;7222;57.346;12.150;2022-11-15T01:35:56;7.43;;;6.13;;
14276;SDS011;7222;57.346;12.150;2022-11-15T01:38:25;8.60;;;6.20;;
14276;SDS011;7222;57.346;12.150;2022-11-15T01:40:52;7.37;;;5.70;;
14276;SDS011;7222;57.346;12.150;2022-11-15T01:43:20;8.90;;;6.30;;
14276;SDS011;7222;57.346;12.150;2022-11-15T01:45:49;6.93;;;6.10;;
14276;SDS011;7222;57.346;12.150;2022-11-15T01:48:23;8.83;;;6.77;;
14276;SDS011;7222;57.346;12.150;2022-11-15T01:50:54;9.77;;;6.60;;
14276;SDS011;7222;57.346;12.150;2022-11-15T01:53:22;7.13;;;5.93;;
14276;SDS011;7222;57.346;12.150;2022-11-15T01:55:52;8.63;;;6.70;;
14276;SDS011;7222;57.346;12.150;2022-11-15T01:58:23;7.17;;;5.70;;
14276;SDS011;7222;57.346;12.150;2022-11-15T02:00:50;7.73;;;6.20;;
14276;SDS011;7222;57.346;12.150;2022-11-15T02:03:18;8.17;;;6.63;;
14276;SDS011;7222;57.346;12.150;2022-11-15T02:05:49;8.77;;;6.33;;
14276;SDS011;7222;57.346;12.150;2022-11-15T02:08:17;7.03;;;6.17;;
14276;SDS011;7222;57.346;12.150;2022-11-15T02:10:47;7.43;;;6.13;;
14276;SDS011;7222;57.346;12.150;2022-11-15T02:13:14;7.53;;;6.07;;
14276;SDS011;7222;57.346;12.150;2022-11-15T02:15:44;9.93;;;6.10;;
14276;SDS011;7222;57.346;12.150;2022-11-15T02:18:18;8.97;;;6.33;;
14276;SDS011;7222;57.346;12.150;2022-11-15T02:20:55;9.23;;;6.13;;
14276;SDS011;7222;57.346;12.150;2022-11-15T02:23:47;7.67;;;6.53;;
14276;SDS011;7222;57.346;12.150;2022-11-15T02:29:38;9.03;;;6.87;;
14276;SDS011;7222;57.346;12.150;2022-11-15T02:32:26;9.17;;;6.67;;
14276;SDS011;7222;57.346;12.150;2022-11-15T02:35:02;9.93;;;7.20;;
14276;SDS011;7222;57.346;12.150;2022-11-15T02:37:39;7.63;;;6.20;;
14276;SDS011;7222;57.346;12.150;2022-11-15T02:40:13;7.67;;;6.47;;
14276;SDS011;7222;57.346;12.150;2022-11-15T02:42:49;9.30;;;6.30;;
14276;SDS011;7222;57.346;12.150;2022-11-15T02:45:39;9.20;;;7.07;;
14276;SDS011;7222;57.346;12.150;2022-11-15T02:48:12;7.43;;;5.67;;
14276;SDS011;7222;57.346;12.150;2022-11-15T02:50:41;8.17;;;6.00;;
14276;SDS011;7222;57.346;12.150;2022-11-15T02:53:09;7.33;;;6.10;;
14276;SDS011;7222;57.346;12.150;2022-11-15T02:55:37;8.07;;;5.87;;
14276;SDS011;7222;57.346;12.150;2022-11-15T02:58:14;8.77;;;7.13;;
14276;SDS011;7222;57.346;12.150;2022-11-15T03:01:07;8.87;;;6.50;;
14276;SDS011;7222;57.346;12.150;2022-11-15T03:03:52;8.00;;;6.67;;
14276;SDS011;7222;57.346;12.150;2022-11-15T03:06:29;8.53;;;6.43;;
14276;SDS011;7222;57.346;12.150;2022-11-15T03:09:03;8.90;;;7.00;;
14276;SDS011;7222;57.346;12.150;2022-11-15T03:11:36;10.10;;;7.37;;
14276;SDS011;7222;57.346;12.150;2022-11-15T03:14:08;9.80;;;6.77;;
14276;SDS011;7222;57.346;12.150;2022-11-15T03:16:45;9.87;;;7.23;;
14276;SDS011;7222;57.346;12.150;2022-11-15T03:19:19;10.50;;;6.77;;
14276;SDS011;7222;57.346;12.150;2022-11-15T03:21:52;9.07;;;6.70;;
14276;SDS011;7222;57.346;12.150;2022-11-15T03:24:22;7.63;;;6.17;;
14276;SDS011;7222;57.346;12.150;2022-11-15T03:26:52;9.37;;;7.00;;
14276;SDS011;7222;57.346;12.150;2022-11-15T03:29:22;9.13;;;7.40;;
14276;SDS011;7222;57.346;12.150;2022-11-15T03:31:54;8.20;;;6.83;;
14276;SDS011;7222;57.346;12.150;2022-11-15T03:34:28;8.70;;;6.87;;
14276;SDS011;7222;57.346;12.150;2022-11-15T03:36:58;10.40;;;7.27;;
14276;SDS011;7222;57.346;12.150;2022-11-15T03:39:26;7.43;;;6.17;;
14276;SDS011;7222;57.346;12.150;2022-11-15T03:41:56;8.73;;;6.47;;
14276;SDS011;7222;57.346;12.150;2022-11-15T03:44:32;9.97;;;6.97;;
14276;SDS011;7222;57.346;12.150;2022-11-15T03:47:07;7.53;;;6.33;;
14276;SDS011;7222;57.346;12.150;2022-11-15T03:49:41;10.70;;;7.87;;
14276;SDS011;7222;57.346;12.150;2022-11-15T03:52:12;10.67;;;7.50;;
14276;SDS011;7222;57.346;12.150;2022-11-15T03:54:48;8.67;;;6.90;;
14276;SDS011;7222;57.346;12.150;2022-11-15T03:57:18;9.20;;;8.00;;
14276;SDS011;7222;57.346;12.150;2022-11-15T03:59:45;9.30;;;6.90;;
14276;SDS011;7222;57.346;12.150;2022-11-15T04:02:12;10.10;;;7.53;;
14276;SDS011;7222;57.346;12.150;2022-11-15T04:04:41;9.27;;;7.23;;
14276;SDS011;7222;57.346;12.150;2022-11-15T04:07:08;10.97;;;7.50;;
14276;SDS011;7222;57.346;12.150;2022-11-15T04:09:35;8.20;;;6.53;;
14276;SDS011;7222;57.346;12.150;2022-11-15T04:12:23;11.07;;;8.60;;
14276;SDS011;7222;57.346;12.150;2022-11-15T04:14:57;11.60;;;7.40;;
14276;SDS011;7222;57.346;12.150;2022-11-15T04:17:34;9.80;;;7.47;;
14276;SDS011;7222;57.346;12.150;2022-11-15T04:20:05;9.37;;;6.90;;
14276;SDS011;7222;57.346;12.150;2022-11-15T04:22:52;9.73;;;7.43;;
14276;SDS011;7222;57.346;12.150;2022-11-15T04:25:37;12.57;;;8.17;;
14276;SDS011;7222;57.346;12.150;2022-11-15T04:28:04;9.70;;;7.07;;
14276;SDS011;7222;57.346;12.150;2022-11-15T04:30:31;10.33;;;7.27;;
14276;SDS011;7222;57.346;12.150;2022-11-15T04:32:58;10.30;;;7.70;;
14276;SDS011;7222;57.346;12.150;2022-11-15T04:35:27;9.43;;;7.57;;
14276;SDS011;7222;57.346;12.150;2022-11-15T04:37:54;10.20;;;7.60;;
14276;SDS011;7222;57.346;12.150;2022-11-15T04:40:21;10.93;;;7.57;;
14276;SDS011;7222;57.346;12.150;2022-11-15T04:42:48;9.67;;;7.20;;
14276;SDS011;7222;57.346;12.150;2022-11-15T04:45:15;12.70;;;8.77;;
14276;SDS011;7222;57.346;12.150;2022-11-15T04:47:43;11.43;;;8.17;;
14276;SDS011;7222;57.346;12.150;2022-11-15T04:50:11;10.70;;;6.53;;
14276;SDS011;7222;57.346;12.150;2022-11-15T04:52:42;9.00;;;6.70;;
14276;SDS011;7222;57.346;12.150;2022-11-15T04:55:10;8.80;;;7.27;;
14276;SDS011;7222;57.346;12.150;2022-11-15T04:57:37;12.83;;;8.40;;
14276;SDS011;7222;57.346;12.150;2022-11-15T05:00:05;10.13;;;7.43;;
14276;SDS011;7222;57.346;12.150;2022-11-15T05:02:34;10.33;;;7.70;;
14276;SDS011;7222;57.346;12.150;2022-11-15T05:05:19;12.03;;;8.57;;
14276;SDS011;7222;57.346;12.150;2022-11-15T05:07:47;9.87;;;7.60;;
14276;SDS011;7222;57.346;12.150;2022-11-15T05:10:14;14.03;;;9.27;;
14276;SDS011;7222;57.346;12.150;2022-11-15T05:12:42;11.57;;;8.57;;
14276;SDS011;7222;57.346;12.150;2022-11-15T05:15:09;10.27;;;7.80;;
14276;SDS011;7222;57.346;12.150;2022-11-15T05:17:36;10.60;;;8.17;;
14276;SDS011;7222;57.346;12.150;2022-11-15T05:20:04;10.80;;;7.83;;
14276;SDS011;7222;57.346;12.150;2022-11-15T05:22:32;10.83;;;8.47;;
14276;SDS011;7222;57.346;12.150;2022-11-15T05:25:00;13.13;;;8.57;;
14276;SDS011;7222;57.346;12.150;2022-11-15T05:27:27;9.70;;;7.73;;
14276;SDS011;7222;57.346;12.150;2022-11-15T05:29:54;11.70;;;7.77;;
14276;SDS011;7222;57.346;12.150;2022-11-15T05:32:22;13.07;;;9.33;;
14276;SDS011;7222;57.346;12.150;2022-11-15T05:34:50;10.80;;;7.80;;
14276;SDS011;7222;57.346;12.150;2022-11-15T05:37:17;10.90;;;8.37;;
14276;SDS011;7222;57.346;12.150;2022-11-15T05:39:44;12.33;;;8.60;;
14276;SDS011;7222;57.346;12.150;2022-11-15T05:42:13;13.83;;;9.10;;
14276;SDS011;7222;57.346;12.150;2022-11-15T05:44:41;11.17;;;8.33;;
14276;SDS011;7222;57.346;12.150;2022-11-15T05:47:14;11.70;;;8.10;;
14276;SDS011;7222;57.346;12.150;2022-11-15T05:49:43;10.33;;;7.63;;
14276;SDS011;7222;57.346;12.150;2022-11-15T05:52:12;11.13;;;8.47;;
14276;SDS011;7222;57.346;12.150;2022-11-15T05:54:42;13.53;;;8.63;;
14276;SDS011;7222;57.346;12.150;2022-11-15T05:57:09;11.57;;;8.97;;
14276;SDS011;7222;57.346;12.150;2022-11-15T05:59:38;11.17;;;8.37;;
14276;SDS011;7222;57.346;12.150;2022-11-15T06:02:06;12.43;;;9.20;;
14276;SDS011;7222;57.346;12.150;2022-11-15T06:04:33;12.47;;;9.40;;
14276;SDS011;7222;57.346;12.150;2022-11-15T06:07:00;10.37;;;8.10;;
14276;SDS011;7222;57.346;12.150;2022-11-15T06:09:27;11.27;;;8.13;;
14276;SDS011;7222;57.346;12.150;2022-11-15T06:11:54;10.93;;;8.30;;
14276;SDS011;7222;57.346;12.150;2022-11-15T06:14:21;10.77;;;7.83;;
14276;SDS011;7222;57.346;12.150;2022-11-15T06:16:50;10.97;;;7.80;;
14276;SDS011;7222;57.346;12.150;2022-11-15T06:19:17;9.33;;;7.27;;
14276;SDS011;7222;57.346;12.150;2022-11-15T06:21:44;11.60;;;7.90;;
14276;SDS011;7222;57.346;12.150;2022-11-15T06:24:11;10.40;;;7.70;;
14276;SDS011;7222;57.346;12.150;2022-11-15T06:26:38;9.97;;;6.97;;
14276;SDS011;7222;57.346;12.150;2022-11-15T06:29:05;11.00;;;7.87;;
14276;SDS011;7222;57.346;12.150;2022-11-15T06:31:33;8.97;;;7.67;;
14276;SDS011;7222;57.346;12.150;2022-11-15T06:34:02;12.60;;;8.10;;
14276;SDS011;7222;57.346;12.150;2022-11-15T06:36:29;10.33;;;7.37;;
14276;SDS011;7222;57.346;12.150;2022-11-15T06:38:56;10.30;;;7.50;;
14276;SDS011;7222;57.346;12.150;2022-11-15T06:41:24;11.50;;;8.13;;
14276;SDS011;7222;57.346;12.150;2022-11-15T06:43:51;10.20;;;7.70;;
14276;SDS011;7222;57.346;12.150;2022-11-15T06:46:18;10.77;;;7.70;;
14276;SDS011;7222;57.346;12.150;2022-11-15T06:48:45;11.97;;;8.20;;
14276;SDS011;7222;57.346;12.150;2022-11-15T06:51:14;10.93;;;7.53;;
14276;SDS011;7222;57.346;12.150;2022-11-15T06:53:41;9.03;;;6.93;;
14276;SDS011;7222;57.346;12.150;2022-11-15T06:56:09;10.60;;;8.20;;
14276;SDS011;7222;57.346;12.150;2022-11-15T06:58:36;9.60;;;7.43;;
14276;SDS011;7222;57.346;12.150;2022-11-15T07:01:04;11.77;;;8.20;;
14276;SDS011;7222;57.346;12.150;2022-11-15T07:03:33;12.30;;;8.60;;
14276;SDS011;7222;57.346;12.150;2022-11-15T07:06:01;12.30;;;8.23;;
14276;SDS011;7222;57.346;12.150;2022-11-15T07:08:30;11.83;;;8.93;;
14276;SDS011;7222;57.346;12.150;2022-11-15T07:10:57;10.50;;;7.63;;
14276;SDS011;7222;57.346;12.150;2022-11-15T07:13:26;11.83;;;8.20;;
14276;SDS011;7222;57.346;12.150;2022-11-15T07:15:54;11.80;;;8.10;;
14276;SDS011;7222;57.346;12.150;2022-11-15T07:18:21;9.23;;;7.00;;
14276;SDS011;7222;57.346;12.150;2022-11-15T07:20:48;10.40;;;7.47;;
14276;SDS011;7222;57.346;12.150;2022-11-15T07:23:16;13.17;;;8.13;;
14276;SDS011;7222;57.346;12.150;2022-11-15T07:25:44;11.07;;;7.73;;
14276;SDS011;7222;57.346;12.150;2022-11-15T07:28:12;10.47;;;8.50;;
14276;SDS011;7222;57.346;12.150;2022-11-15T07:30:39;10.97;;;7.63;;
14276;SDS011;7222;57.346;12.150;2022-11-15T07:33:06;12.63;;;9.87;;
14276;SDS011;7222;57.346;12.150;2022-11-15T07:35:33;10.87;;;8.13;;
14276;SDS011;7222;57.346;12.150;2022-11-15T07:38:00;10.90;;;7.90;;
14276;SDS011;7222;57.346;12.150;2022-11-15T07:40:29;11.50;;;7.77;;
14276;SDS011;7222;57.346;12.150;2022-11-15T07:43:02;11.00;;;8.50;;
14276;SDS011;7222;57.346;12.150;2022-11-15T07:45:31;14.10;;;8.70;;
14276;SDS011;7222;57.346;12.150;2022-11-15T07:47:59;12.63;;;8.33;;
14276;SDS011;7222;57.346;12.150;2022-11-15T07:50:27;10.63;;;8.53;;
14276;SDS011;7222;57.346;12.150;2022-11-15T07:52:55;9.63;;;8.47;;
14276;SDS011;7222;57.346;12.150;2022-11-15T07:55:22;10.70;;;7.60;;
14276;SDS011;7222;57.346;12.150;2022-11-15T07:57:50;12.43;;;7.87;;
14276;SDS011;7222;57.346;12.150;2022-11-15T08:00:19;10.63;;;7.93;;
14276;SDS011;7222;57.346;12.150;2022-11-15T08:02:46;10.73;;;7.50;;
14276;SDS011;7222;57.346;12.150;2022-11-15T08:05:14;9.73;;;7.63;;
14276;SDS011;7222;57.346;12.150;2022-11-15T08:07:41;10.53;;;8.30;;
14276;SDS011;7222;57.346;12.150;2022-11-15T08:10:09;9.53;;;7.63;;
14276;SDS011;7222;57.346;12.150;2022-11-15T08:12:37;12.20;;;8.93;;
14276;SDS011;7222;57.346;12.150;2022-11-15T08:15:04;10.47;;;7.80;;
14276;SDS011;7222;57.346;12.150;2022-11-15T08:17:33;10.70;;;7.77;;
14276;SDS011;7222;57.346;12.150;2022-11-15T08:20:01;12.07;;;8.57;;
14276;SDS011;7222;57.346;12.150;2022-11-15T08:22:28;11.50;;;8.30;;
14276;SDS011;7222;57.346;12.150;2022-11-15T08:24:55;10.30;;;8.30;;
14276;SDS011;7222;57.346;12.150;2022-11-15T08:27:22;11.33;;;8.03;;
14276;SDS011;7222;57.346;12.150;2022-11-15T08:29:49;9.07;;;7.23;;
14276;SDS011;7222;57.346;12.150;2022-11-15T08:32:16;12.03;;;8.40;;
14276;SDS011;7222;57.346;12.150;2022-11-15T08:34:45;12.03;;;8.60;;
14276;SDS011;7222;57.346;12.150;2022-11-15T08:37:12;12.13;;;8.60;;
14276;SDS011;7222;57.346;12.150;2022-11-15T08:39:39;10.37;;;7.90;;
14276;SDS011;7222;57.346;12.150;2022-11-15T08:42:06;11.90;;;8.27;;
14276;SDS011;7222;57.346;12.150;2022-11-15T08:44:33;9.27;;;6.83;;
14276;SDS011;7222;57.346;12.150;2022-11-15T08:47:01;15.47;;;8.97;;
14276;SDS011;7222;57.346;12.150;2022-11-15T08:49:28;11.57;;;7.90;;
14276;SDS011;7222;57.346;12.150;2022-11-15T08:51:57;10.23;;;7.00;;
14276;SDS011;7222;57.346;12.150;2022-11-15T08:54:24;10.67;;;7.73;;
14276;SDS011;7222;57.346;12.150;2022-11-15T08:56:51;9.77;;;7.53;;
14276;SDS011;7222;57.346;12.150;2022-11-15T08:59:18;11.97;;;9.20;;
14276;SDS011;7222;57.346;12.150;2022-11-15T09:01:45;11.57;;;8.40;;
14276;SDS011;7222;57.346;12.150;2022-11-15T09:04:13;10.43;;;8.43;;
14276;SDS011;7222;57.346;12.150;2022-11-15T09:06:40;12.13;;;7.83;;
14276;SDS011;7222;57.346;12.150;2022-11-15T09:09:08;13.17;;;8.33;;
14276;SDS011;7222;57.346;12.150;2022-11-15T09:11:35;11.93;;;8.30;;
14276;SDS011;7222;57.346;12.150;2022-11-15T09:14:02;11.63;;;7.80;;
14276;SDS011;7222;57.346;12.150;2022-11-15T09:16:30;11.13;;;8.20;;
14276;SDS011;7222;57.346;12.150;2022-11-15T09:18:57;11.57;;;7.77;;
14276;SDS011;7222;57.346;12.150;2022-11-15T09:21:24;12.00;;;8.00;;
14276;SDS011;7222;57.346;12.150;2022-11-15T09:23:51;10.27;;;7.33;;
14276;SDS011;7222;57.346;12.150;2022-11-15T09:26:20;9.50;;;6.73;;
14276;SDS011;7222;57.346;12.150;2022-11-15T09:28:47;10.70;;;7.60;;
14276;SDS011;7222;57.346;12.150;2022-11-15T09:31:18;10.63;;;8.07;;
14276;SDS011;7222;57.346;12.150;2022-11-15T09:33:45;9.73;;;7.50;;
14276;SDS011;7222;57.346;12.150;2022-11-15T09:36:13;10.30;;;7.63;;
14276;SDS011;7222;57.346;12.150;2022-11-15T09:38:40;10.50;;;7.20;;
14276;SDS011;7222;57.346;12.150;2022-11-15T09:41:18;11.43;;;7.43;;
14276;SDS011;7222;57.346;12.150;2022-11-15T09:44:04;7.60;;;5.57;;
14276;SDS011;7222;57.346;12.150;2022-11-15T09:46:51;10.03;;;7.13;;
14276;SDS011;7222;57.346;12.150;2022-11-15T09:49:22;9.80;;;6.73;;
14276;SDS011;7222;57.346;12.150;2022-11-15T09:51:50;9.13;;;7.07;;
14276;SDS011;7222;57.346;12.150;2022-11-15T09:54:25;10.73;;;6.87;;
14276;SDS011;7222;57.346;12.150;2022-11-15T09:57:02;9.03;;;6.27;;
14276;SDS011;7222;57.346;12.150;2022-11-15T10:02:32;8.50;;;5.80;;
14276;SDS011;7222;57.346;12.150;2022-11-15T10:05:09;8.90;;;6.70;;
14276;SDS011;7222;57.346;12.150;2022-11-15T10:07:45;8.87;;;6.10;;
14276;SDS011;7222;57.346;12.150;2022-11-15T10:10:20;7.60;;;5.80;;
14276;SDS011;7222;57.346;12.150;2022-11-15T10:12:54;8.37;;;5.70;;
14276;SDS011;7222;57.346;12.150;2022-11-15T10:15:22;7.67;;;5.53;;
14276;SDS011;7222;57.346;12.150;2022-11-15T10:17:59;9.90;;;6.23;;
14276;SDS011;7222;57.346;12.150;2022-11-15T10:20:34;7.60;;;5.63;;
14276;SDS011;7222;57.346;12.150;2022-11-15T10:23:10;6.47;;;5.00;;
14276;SDS011;7222;57.346;12.150;2022-11-15T10:25:39;7.43;;;5.13;;
14276;SDS011;7222;57.346;12.150;2022-11-15T10:28:10;7.67;;;5.40;;
14276;SDS011;7222;57.346;12.150;2022-11-15T10:30:42;6.83;;;5.70;;
14276;SDS011;7222;57.346;12.150;2022-11-15T10:33:13;5.97;;;4.83;;
14276;SDS011;7222;57.346;12.150;2022-11-15T10:38:51;8.20;;;5.80;;
14276;SDS011;7222;57.346;12.150;2022-11-15T10:41:29;7.97;;;6.00;;
14276;SDS011;7222;57.346;12.150;2022-11-15T10:44:08;6.60;;;5.43;;
14276;SDS011;7222;57.346;12.150;2022-11-15T10:46:45;5.90;;;5.30;;
14276;SDS011;7222;57.346;12.150;2022-11-15T10:49:14;7.03;;;5.50;;
14276;SDS011;7222;57.346;12.150;2022-11-15T10:51:44;6.60;;;5.50;;
14276;SDS011;7222;57.346;12.150;2022-11-15T10:54:13;6.73;;;5.13;;
14276;SDS011;7222;57.346;12.150;2022-11-15T10:56:57;6.40;;;4.93;;
14276;SDS011;7222;57.346;12.150;2022-11-15T10:59:29;6.37;;;5.27;;
14276;SDS011;7222;57.346;12.150;2022-11-15T11:01:58;5.67;;;5.07;;
14276;SDS011;7222;57.346;12.150;2022-11-15T11:04:26;6.63;;;4.90;;
14276;SDS011;7222;57.346;12.150;2022-11-15T11:06:54;6.50;;;4.77;;
14276;SDS011;7222;57.346;12.150;2022-11-15T11:09:27;6.97;;;5.20;;
14276;SDS011;7222;57.346;12.150;2022-11-15T11:11:57;5.83;;;5.23;;
14276;SDS011;7222;57.346;12.150;2022-11-15T11:14:25;6.23;;;5.13;;
14276;SDS011;7222;57.346;12.150;2022-11-15T11:16:58;6.27;;;4.93;;
14276;SDS011;7222;57.346;12.150;2022-11-15T11:19:46;5.13;;;4.63;;
14276;SDS011;7222;57.346;12.150;2022-11-15T11:22:22;6.63;;;4.80;;
14276;SDS011;7222;57.346;12.150;2022-11-15T11:24:56;5.63;;;4.67;;
14276;SDS011;7222;57.346;12.150;2022-11-15T11:27:34;7.00;;;5.10;;
14276;SDS011;7222;57.346;12.150;2022-11-15T11:30:11;5.60;;;4.80;;
14276;SDS011;7222;57.346;12.150;2022-11-15T11:32:48;6.10;;;4.67;;
14276;SDS011;7222;57.346;12.150;2022-11-15T11:35:23;8.90;;;5.07;;
14276;SDS011;7222;57.346;12.150;2022-11-15T11:37:58;5.83;;;4.40;;
14276;SDS011;7222;57.346;12.150;2022-11-15T11:40:37;6.70;;;5.50;;
14276;SDS011;7222;57.346;12.150;2022-11-15T11:43:11;5.50;;;4.23;;
14276;SDS011;7222;57.346;12.150;2022-11-15T11:45:57;7.30;;;4.77;;
14276;SDS011;7222;57.346;12.150;2022-11-15T11:48:40;5.30;;;4.17;;
14276;SDS011;7222;57.346;12.150;2022-11-15T11:51:11;6.00;;;4.60;;
14276;SDS011;7222;57.346;12.150;2022-11-15T11:53:44;6.03;;;4.40;;
14276;SDS011;7222;57.346;12.150;2022-11-15T11:56:20;5.77;;;4.23;;
14276;SDS011;7222;57.346;12.150;2022-11-15T11:58:52;5.43;;;4.87;;
14276;SDS011;7222;57.346;12.150;2022-11-15T12:01:24;5.40;;;4.37;;
14276;SDS011;7222;57.346;12.150;2022-11-15T12:03:55;7.17;;;4.83;;
14276;SDS011;7222;57.346;12.150;2022-11-15T12:06:28;5.03;;;4.33;;
14276;SDS011;7222;57.346;12.150;2022-11-15T12:09:01;8.03;;;4.70;;
14276;SDS011;7222;57.346;12.150;2022-11-15T12:11:35;7.23;;;5.30;;
14276;SDS011;7222;57.346;12.150;2022-11-15T12:14:12;5.60;;;4.50;;
14276;SDS011;7222;57.346;12.150;2022-11-15T12:16:50;4.47;;;4.00;;
14276;SDS011;7222;57.346;12.150;2022-11-15T12:19:17;6.10;;;3.90;;
14276;SDS011;7222;57.346;12.150;2022-11-15T12:21:46;4.30;;;3.80;;
14276;SDS011;7222;57.346;12.150;2022-11-15T12:24:17;4.53;;;4.07;;
14276;SDS011;7222;57.346;12.150;2022-11-15T12:26:49;6.17;;;4.07;;
14276;SDS011;7222;57.346;12.150;2022-11-15T12:29:20;4.80;;;3.70;;
14276;SDS011;7222;57.346;12.150;2022-11-15T12:31:54;5.43;;;3.60;;
14276;SDS011;7222;57.346;12.150;2022-11-15T12:34:35;3.03;;;2.73;;
14276;SDS011;7222;57.346;12.150;2022-11-15T12:40:21;3.23;;;2.73;;
14276;SDS011;7222;57.346;12.150;2022-11-15T12:43:01;3.23;;;2.70;;
14276;SDS011;7222;57.346;12.150;2022-11-15T12:46:03;3.17;;;2.73;;
14276;SDS011;7222;57.346;12.150;2022-11-15T12:48:47;2.63;;;2.40;;
14276;SDS011;7222;57.346;12.150;2022-11-15T12:51:17;2.97;;;2.67;;
14276;SDS011;7222;57.346;12.150;2022-11-15T12:53:46;2.90;;;2.37;;
14276;SDS011;7222;57.346;12.150;2022-11-15T12:56:22;3.03;;;2.47;;
14276;SDS011;7222;57.346;12.150;2022-11-15T12:58:51;3.00;;;2.53;;
14276;SDS011;7222;57.346;12.150;2022-11-15T13:04:25;2.87;;;2.20;;
14276;SDS011;7222;57.346;12.150;2022-11-15T13:06:54;3.77;;;2.40;;
14276;SDS011;7222;57.346;12.150;2022-11-15T13:18:38;3.33;;;2.00;;
14276;SDS011;7222;57.346;12.150;2022-11-15T13:21:19;2.43;;;2.17;;
14276;SDS011;7222;57.346;12.150;2022-11-15T13:24:10;2.53;;;2.07;;
14276;SDS011;7222;57.346;12.150;2022-11-15T13:26:39;2.47;;;1.97;;
14276;SDS011;7222;57.346;12.150;2022-11-15T13:29:14;1.60;;;1.50;;
14276;SDS011;7222;57.346;12.150;2022-11-15T13:31:43;1.70;;;1.60;;
14276;SDS011;7222;57.346;12.150;2022-11-15T13:34:15;2.13;;;1.93;;
14276;SDS011;7222;57.346;12.150;2022-11-15T13:36:52;1.90;;;1.70;;
14276;SDS011;7222;57.346;12.150;2022-11-15T13:39:25;1.87;;;1.77;;
14276;SDS011;7222;57.346;12.150;2022-11-15T13:41:54;2.80;;;1.70;;
14276;SDS011;7222;57.346;12.150;2022-11-15T13:44:22;2.10;;;1.87;;
14276;SDS011;7222;57.346;12.150;2022-11-15T13:47:00;2.40;;;2.00;;
14276;SDS011;7222;57.346;12.150;2022-11-15T13:49:29;2.00;;;1.80;;
14276;SDS011;7222;57.346;12.150;2022-11-15T13:51:59;1.73;;;1.63;;
14276;SDS011;7222;57.346;12.150;2022-11-15T13:54:28;2.50;;;1.93;;
14276;SDS011;7222;57.346;12.150;2022-11-15T13:56:59;2.13;;;1.83;;
14276;SDS011;7222;57.346;12.150;2022-11-15T13:59:30;1.63;;;1.53;;
14276;SDS011;7222;57.346;12.150;2022-11-15T14:02:02;3.67;;;1.67;;
14276;SDS011;7222;57.346;12.150;2022-11-15T14:04:38;1.70;;;1.60;;
14276;SDS011;7222;57.346;12.150;2022-11-15T14:07:16;1.77;;;1.67;;
14276;SDS011;7222;57.346;12.150;2022-11-15T14:09:45;1.90;;;1.80;;
14276;SDS011;7222;57.346;12.150;2022-11-15T14:12:23;1.70;;;1.50;;
14276;SDS011;7222;57.346;12.150;2022-11-15T14:14:54;1.60;;;1.50;;
14276;SDS011;7222;57.346;12.150;2022-11-15T14:17:32;2.17;;;1.80;;
14276;SDS011;7222;57.346;12.150;2022-11-15T14:20:01;2.37;;;1.77;;
14276;SDS011;7222;57.346;12.150;2022-11-15T14:22:52;1.80;;;1.47;;
14276;SDS011;7222;57.346;12.150;2022-11-15T14:25:20;1.83;;;1.43;;
14276;SDS011;7222;57.346;12.150;2022-11-15T14:30:39;3.20;;;1.70;;
14276;SDS011;7222;57.346;12.150;2022-11-15T14:33:18;2.17;;;1.50;;
14276;SDS011;7222;57.346;12.150;2022-11-15T14:35:47;3.10;;;1.77;;
14276;SDS011;7222;57.346;12.150;2022-11-15T14:38:16;1.87;;;1.30;;
14276;SDS011;7222;57.346;12.150;2022-11-15T14:40:44;1.70;;;1.60;;
14276;SDS011;7222;57.346;12.150;2022-11-15T14:43:11;1.60;;;1.50;;
14276;SDS011;7222;57.346;12.150;2022-11-15T14:45:39;2.30;;;1.90;;
14276;SDS011;7222;57.346;12.150;2022-11-15T14:48:07;1.83;;;1.60;;
14276;SDS011;7222;57.346;12.150;2022-11-15T14:50:34;1.87;;;1.70;;
14276;SDS011;7222;57.346;12.150;2022-11-15T14:53:02;1.90;;;1.40;;
14276;SDS011;7222;57.346;12.150;2022-11-15T14:55:31;1.40;;;1.30;;
14276;SDS011;7222;57.346;12.150;2022-11-15T14:58:01;2.90;;;1.40;;
14276;SDS011;7222;57.346;12.150;2022-11-15T15:00:29;3.60;;;1.30;;
14276;SDS011;7222;57.346;12.150;2022-11-15T15:02:56;1.23;;;1.10;;
14276;SDS011;7222;57.346;12.150;2022-11-15T15:05:23;1.37;;;1.10;;
14276;SDS011;7222;57.346;12.150;2022-11-15T15:07:57;2.30;;;1.50;;
14276;SDS011;7222;57.346;12.150;2022-11-15T15:10:25;1.70;;;1.20;;
14276;SDS011;7222;57.346;12.150;2022-11-15T15:12:55;1.60;;;1.00;;
14276;SDS011;7222;57.346;12.150;2022-11-15T15:15:24;1.07;;;1.07;;
14276;SDS011;7222;57.346;12.150;2022-11-15T15:17:52;1.23;;;1.13;;
14276;SDS011;7222;57.346;12.150;2022-11-15T15:20:19;1.57;;;1.03;;
14276;SDS011;7222;57.346;12.150;2022-11-15T15:22:46;1.30;;;1.10;;
14276;SDS011;7222;57.346;12.150;2022-11-15T15:25:20;1.43;;;1.33;;
14276;SDS011;7222;57.346;12.150;2022-11-15T15:27:49;1.47;;;1.20;;
14276;SDS011;7222;57.346;12.150;2022-11-15T15:30:17;1.20;;;1.10;;
14276;SDS011;7222;57.346;12.150;2022-11-15T15:32:45;1.60;;;1.03;;